This is the latest recevied weather packets stored in our database for station/object WZ8H. If no packets are shown the sender has not sent any weather packets the latest 10 day(s).
| Time | Temp. | Humidity | Pressure | Rain* | Wind** | Luminosity | Snow |
|---|---|---|---|---|---|---|---|
| 1778084734 | 12.22° C | 69% | 1011.9 hPa | 0 mm | - | 510 W/m² | - |
| 1778084424 | 12.22° C | 70% | 1011.9 hPa | 0 mm | - | 977 W/m² | - |
| 1778084126 | 12.22° C | 70% | 1011.8 hPa | 0 mm | - | 1136 W/m² | - |
| 1778083821 | 12.78° C | 71% | 1011.7 hPa | 0 mm | - | 468 W/m² | - |
| 1778083514 | 12.22° C | 70% | 1011.5 hPa | 0 mm | - | 926 W/m² | - |
| 1778083184 | 12.22° C | 70% | 1011.6 hPa | 0 mm | - | 921 W/m² | - |
| 1778082885 | 12.78° C | 72% | 1011.5 hPa | 0 mm | - | 761 W/m² | - |
| 1778082556 | 12.22° C | 72% | 1011.6 hPa | 0 mm | - | 879 W/m² | - |
| 1778082255 | 12.22° C | 73% | 1011.5 hPa | 0 mm | - | 886 W/m² | - |
| 1778081928 | 11.67° C | 73% | 1011.5 hPa | 0 mm | - | 874 W/m² | - |
| 1778081627 | 11.67° C | 75% | 1011.4 hPa | 0 mm | - | 865 W/m² | - |
| 1778081327 | 11.67° C | 74% | 1011.5 hPa | 0 mm | - | 849 W/m² | - |
| 1778081026 | 11.67° C | 76% | 1011.4 hPa | 0 mm | - | 687 W/m² | - |
| 1778080702 | 11.67° C | 76% | 1011.3 hPa | 0 mm | - | 664 W/m² | - |
| 1778080380 | 11.67° C | 76% | 1011 hPa | 0 mm | - | 745 W/m² | - |
| 1778080059 | 11.67° C | 77% | 1011 hPa | 0 mm | - | 617 W/m² | - |
| 1778079735 | 11.67° C | 77% | 1011 hPa | 0 mm | - | 696 W/m² | - |
| 1778079443 | 11.67° C | 77% | 1010.8 hPa | 0 mm | - | 722 W/m² | - |
| 1778079128 | 11.67° C | 78% | 1010.7 hPa | 0 mm | - | 712 W/m² | - |
| 1778078824 | 11.67° C | 77% | 1010.7 hPa | 0 mm | - | 643 W/m² | - |
| 1778078507 | 11.11° C | 76% | 1010.6 hPa | 0 mm | - | 647 W/m² | - |
| 1778078207 | 11.67° C | 76% | 1010.6 hPa | 0 mm | - | 680 W/m² | - |
| 1778077908 | 11.67° C | 76% | 1010.7 hPa | 0 mm | - | 613 W/m² | - |
| 1778077608 | 11.11° C | 76% | 1010.6 hPa | 0 mm | - | 691 W/m² | - |
| 1778077285 | 11.11° C | 75% | 1010.5 hPa | 0 mm | - | 705 W/m² | - |
* Rain latest hour (hover to see other rain measurements)
** Current wind speed in m/s (hover to see current wind gust speed)